Terminal Aerodrome Forecast
Issued by NWS Denver/Boulder, CO

Home | Current Version | Previous Version | Text Only | Print | Product List | Glossary On
Versions: 1 2 3 4 5 6 7 8 9 10 11 12 13 14 15 16 17 18 19 20 21 22 23 24 25 26 27 28 29 30 31 32 33 34 35 36 37 38
000
FTUS45 KBOU 272337
TAFDEN
TAF
KDEN 272337Z 2800/2906 07008KT P6SM FEW090 SCT200
     FM280100 01014G24KT P6SM VCTS SCT090CB BKN150
     FM280230 08012KT P6SM FEW080 SCT140
     FM280500 14011KT P6SM FEW090 SCT150
     FM280700 34008KT P6SM FEW080 SCT200
     FM281000 VRB05KT P6SM FEW012
     FM281500 35005KT P6SM FEW150
     FM281900 03013KT P6SM FEW080 SCT140
     FM282300 06012G20KT P6SM SCT080 BKN120 PROB30 2900/2904
      VRB20G35KT -TSRA BKN070CB=

USA.gov is the U.S. government's official web portal to all federal, state and local government web resources and services.